Terminal Aerodrome Forecast
Issued by NWS

Home | Current Version | Previous Version | Graphics & Text | Print | Product List | Glossary On
Versions: 1 2 3 4 5 6 7 8 9 10 11 12 13 14 15 16 17 18 19 20 21 22 23 24 25 26
430
FTUS43 KTOP 242131 AAA
TAFMHK
TAF AMD
KMHK 242131Z 2422/2518 07008KT P6SM VCTS SCT050CB BKN100
      TEMPO 2422/2424 2SM TSRA OVC015CB
     FM250000 03012G18KT P6SM -SHRA VCTS BKN025CB
     FM250300 36011G18KT 5SM -SHRA OVC008=

USA.gov is the U.S. government's official web portal to all federal, state and local government web resources and services.